createdAt,value
2023-01-29T00:00:24.742Z,49.30
2023-01-29T00:02:52.196Z,49.30
2023-01-29T00:05:27.818Z,49.30
2023-01-29T00:07:56.376Z,49.30
2023-01-29T00:10:24.592Z,49.20
2023-01-29T00:12:51.801Z,49.20
2023-01-29T00:15:18.835Z,49.30
2023-01-29T00:17:45.695Z,49.30
2023-01-29T00:20:12.707Z,49.40
2023-01-29T00:22:39.347Z,49.40
2023-01-29T00:25:06.642Z,49.30
2023-01-29T00:27:34.410Z,49.50
2023-01-29T00:30:12.734Z,49.40
2023-01-29T00:32:40.468Z,49.30
2023-01-29T00:35:09.023Z,49.50
2023-01-29T00:37:36.194Z,49.50
2023-01-29T00:40:03.844Z,49.40
2023-01-29T00:42:49.097Z,49.50
2023-01-29T00:45:15.848Z,49.40
2023-01-29T00:47:42.585Z,49.50
2023-01-29T00:50:11.434Z,49.70
2023-01-29T00:52:38.517Z,49.50
2023-01-29T00:55:06.032Z,49.40
2023-01-29T00:57:34.109Z,49.50
2023-01-29T01:00:01.368Z,49.70
2023-01-29T01:02:47.437Z,49.70
2023-01-29T01:05:19.183Z,49.80
2023-01-29T01:07:51.065Z,49.70
2023-01-29T01:10:24.458Z,49.80
2023-01-29T01:13:12.570Z,49.70
2023-01-29T01:15:40.134Z,49.90
2023-01-29T01:18:06.912Z,49.70
2023-01-29T01:20:34.899Z,49.70
2023-01-29T01:27:57.472Z,49.70
2023-01-29T01:30:24.559Z,49.80
2023-01-29T01:32:51.565Z,49.80
2023-01-29T01:35:18.497Z,49.90
2023-01-29T01:37:45.113Z,50.10
2023-01-29T01:40:18.376Z,50.10
2023-01-29T01:42:49.316Z,50.20
2023-01-29T01:45:33.583Z,50.40
2023-01-29T01:48:13.068Z,50.30
2023-01-29T01:51:03.411Z,50.20
2023-01-29T01:53:43.607Z,50.30
2023-01-29T01:56:14.140Z,50.20
2023-01-29T01:58:46.993Z,50.30
2023-01-29T02:01:13.932Z,50.30
2023-01-29T02:04:11.323Z,50.40
2023-01-29T02:06:59.191Z,50.40
2023-01-29T02:09:46.487Z,50.30
2023-01-29T02:12:16.222Z,50.20
2023-01-29T02:14:44.094Z,50.70
2023-01-29T02:17:13.985Z,50.20
2023-01-29T02:20:07.688Z,50.30
2023-01-29T02:22:56.099Z,50.30
2023-01-29T02:25:44.902Z,50.30
2023-01-29T02:28:25.472Z,50.70
2023-01-29T02:31:13.340Z,50.60
2023-01-29T02:34:17.337Z,50.70
2023-01-29T02:37:03.208Z,51.10
2023-01-29T02:39:48.024Z,50.80
2023-01-29T02:42:35.756Z,50.90
2023-01-29T02:45:09.679Z,50.90
2023-01-29T02:47:46.532Z,50.80
2023-01-29T02:50:28.376Z,50.60
2023-01-29T02:53:06.430Z,50.80
2023-01-29T02:56:07.135Z,50.60
2023-01-29T02:58:43.022Z,51.20
2023-01-29T03:01:37.124Z,50.80
2023-01-29T03:04:19.480Z,50.70
2023-01-29T03:06:54.392Z,50.60
2023-01-29T03:09:30.180Z,50.50
2023-01-29T03:12:19.935Z,50.40
2023-01-29T03:15:09.595Z,50.30
2023-01-29T03:17:46.906Z,50.20
2023-01-29T03:20:18.939Z,50.30
2023-01-29T03:22:52.367Z,50.40
2023-01-29T03:25:40.436Z,50.40
2023-01-29T03:28:28.829Z,50.20
2023-01-29T03:31:19.941Z,50.10
2023-01-29T03:33:54.537Z,50.20
2023-01-29T03:36:45.333Z,50.10
2023-01-29T03:39:13.647Z,50.10
2023-01-29T03:41:57.772Z,50.10
2023-01-29T03:44:40.260Z,50.30
2023-01-29T03:47:42.053Z,50.10
2023-01-29T03:50:18.068Z,50.00
2023-01-29T03:53:14.255Z,50.00
2023-01-29T03:56:07.271Z,50.00
2023-01-29T03:58:45.165Z,50.10
2023-01-29T04:01:34.075Z,50.00
2023-01-29T04:04:20.301Z,50.10
2023-01-29T04:06:50.362Z,50.30
2023-01-29T04:09:25.242Z,50.20
2023-01-29T04:12:13.678Z,50.20
2023-01-29T04:14:40.407Z,50.20
2023-01-29T04:17:16.475Z,50.20
2023-01-29T04:19:44.355Z,50.20
2023-01-29T04:22:25.985Z,50.20
2023-01-29T04:24:52.801Z,50.20
2023-01-29T04:27:37.510Z,50.30
2023-01-29T04:30:30.725Z,50.50
2023-01-29T04:33:21.891Z,51.10
2023-01-29T04:36:00.060Z,50.80
2023-01-29T04:38:56.537Z,50.70
2023-01-29T04:41:51.828Z,50.70
2023-01-29T04:44:55.025Z,50.80
2023-01-29T04:47:44.999Z,50.80
2023-01-29T04:50:24.071Z,50.70
2023-01-29T04:53:04.042Z,50.70
2023-01-29T04:55:51.713Z,50.60
2023-01-29T04:58:32.276Z,50.50
2023-01-29T05:01:00.846Z,50.60
2023-01-29T05:03:30.115Z,50.70
2023-01-29T05:05:59.757Z,50.60
2023-01-29T05:08:29.240Z,50.70
2023-01-29T05:10:58.707Z,50.70
2023-01-29T05:13:26.735Z,50.70
2023-01-29T05:15:59.300Z,50.70
2023-01-29T05:18:26.315Z,50.80
2023-01-29T05:20:55.508Z,50.70
2023-01-29T05:23:23.139Z,50.80
2023-01-29T05:25:51.659Z,50.70
2023-01-29T05:28:18.710Z,50.70
2023-01-29T05:30:47.485Z,50.80
2023-01-29T05:33:17.151Z,50.60
2023-01-29T05:35:44.415Z,50.70
2023-01-29T05:38:11.738Z,50.50
2023-01-29T05:40:39.120Z,50.60
2023-01-29T05:43:12.944Z,50.60
2023-01-29T05:45:39.683Z,50.60
2023-01-29T05:48:06.353Z,50.50
2023-01-29T05:50:33.067Z,50.50
2023-01-29T05:53:01.136Z,50.40
2023-01-29T05:55:31.922Z,50.40
2023-01-29T05:57:58.850Z,50.10
2023-01-29T06:00:25.568Z,50.00
2023-01-29T06:02:52.425Z,49.90
2023-01-29T06:05:19.137Z,49.90
2023-01-29T06:07:46.108Z,49.90
2023-01-29T06:10:15.392Z,50.00
2023-01-29T06:12:43.454Z,50.00
2023-01-29T06:15:12.037Z,50.30
2023-01-29T06:17:39.015Z,50.40
2023-01-29T06:20:06.446Z,50.40
2023-01-29T06:22:33.726Z,50.40
2023-01-29T06:25:00.470Z,50.60
2023-01-29T06:27:27.280Z,50.80
2023-01-29T06:29:54.022Z,50.90
2023-01-29T06:32:20.718Z,51.10
2023-01-29T06:34:49.687Z,51.20
2023-01-29T06:37:16.518Z,51.10
2023-01-29T06:39:43.160Z,51.00
2023-01-29T06:42:11.141Z,51.10
2023-01-29T06:44:37.822Z,51.20
2023-01-29T06:47:04.622Z,51.10
2023-01-29T06:49:31.604Z,51.30
2023-01-29T06:51:58.283Z,51.30
2023-01-29T06:54:25.027Z,51.70
2023-01-29T06:56:51.992Z,51.60
2023-01-29T06:59:19.744Z,51.60
2023-01-29T08:10:40.614Z,51.70
2023-01-29T08:13:08.210Z,51.70
2023-01-29T08:15:37.173Z,51.80
2023-01-29T08:18:05.413Z,51.70
2023-01-29T08:20:32.327Z,51.80
2023-01-29T08:23:03.703Z,51.80
2023-01-29T08:25:30.700Z,51.80
2023-01-29T08:27:58.383Z,51.80
2023-01-29T08:30:29.765Z,51.60
2023-01-29T08:32:56.456Z,51.30
2023-01-29T08:35:23.319Z,51.60
2023-01-29T08:38:01.313Z,51.40
2023-01-29T08:40:29.409Z,51.40
2023-01-29T08:43:08.688Z,51.40
2023-01-29T08:45:38.657Z,51.70
2023-01-29T08:48:08.288Z,51.60
2023-01-29T08:50:35.830Z,51.50
2023-01-29T08:53:05.362Z,51.60
2023-01-29T08:55:31.981Z,51.60
2023-01-29T08:57:58.646Z,51.60
2023-01-29T09:00:27.782Z,51.70
2023-01-29T09:02:54.519Z,51.70
2023-01-29T09:05:21.358Z,51.60
2023-01-29T09:07:48.013Z,51.70
2023-01-29T09:10:15.624Z,51.50
2023-01-29T09:12:42.401Z,51.50
2023-01-29T09:15:10.732Z,51.50
2023-01-29T09:17:37.373Z,51.50
2023-01-29T09:20:06.146Z,51.60
2023-01-29T09:22:34.096Z,51.60
2023-01-29T09:25:00.809Z,51.80
2023-01-29T09:27:27.485Z,51.60
2023-01-29T09:29:54.349Z,51.80
2023-01-29T09:32:49.662Z,51.70
2023-01-29T09:35:08.107Z,51.80
2023-01-29T09:37:34.959Z,51.70
2023-01-29T09:40:01.603Z,51.70
2023-01-29T09:42:41.196Z,51.60
2023-01-29T09:45:16.244Z,51.70
2023-01-29T09:47:44.693Z,51.70
2023-01-29T09:50:20.226Z,52.10
2023-01-29T09:52:53.970Z,51.60
2023-01-29T09:55:27.540Z,51.80
2023-01-29T09:58:06.145Z,51.70
2023-01-29T10:00:46.615Z,51.90
2023-01-29T10:03:37.399Z,52.00
2023-01-29T10:06:09.518Z,51.90
2023-01-29T10:09:09.129Z,51.80
2023-01-29T10:12:00.617Z,52.00
2023-01-29T10:14:43.266Z,52.00
2023-01-29T10:17:42.494Z,52.20
2023-01-29T10:20:32.892Z,52.20
2023-01-29T10:23:25.074Z,52.60
2023-01-29T10:25:53.611Z,52.70
2023-01-29T10:28:37.966Z,52.70
2023-01-29T10:31:09.577Z,52.60
2023-01-29T10:33:59.439Z,52.60
2023-01-29T10:36:47.519Z,52.60
2023-01-29T10:39:22.111Z,53.20
2023-01-29T10:42:18.802Z,53.00
2023-01-29T10:45:15.878Z,53.00
2023-01-29T10:48:04.894Z,53.30
2023-01-29T10:51:01.791Z,53.70
2023-01-29T10:53:40.094Z,53.50
2023-01-29T10:56:23.064Z,53.00
2023-01-29T10:59:14.889Z,52.90
2023-01-29T11:01:41.675Z,53.40
2023-01-29T11:04:11.759Z,53.10
2023-01-29T11:06:38.812Z,53.20
2023-01-29T11:09:29.215Z,53.10
2023-01-29T11:12:15.371Z,53.30
2023-01-29T11:14:53.704Z,53.50
2023-01-29T11:17:23.573Z,53.90
2023-01-29T11:19:52.169Z,53.90
2023-01-29T11:22:21.402Z,53.90
2023-01-29T11:25:07.441Z,53.80
2023-01-29T11:27:39.747Z,54.20
2023-01-29T11:30:15.344Z,53.80
2023-01-29T11:32:42.448Z,53.90
2023-01-29T11:35:14.910Z,54.00
2023-01-29T11:37:44.490Z,53.90
2023-01-29T11:40:20.659Z,54.10
2023-01-29T11:42:48.328Z,54.00
2023-01-29T11:45:34.870Z,54.10
2023-01-29T11:48:01.815Z,54.20
2023-01-29T11:50:31.463Z,54.30
2023-01-29T11:53:01.942Z,54.60
2023-01-29T11:55:48.174Z,54.60
2023-01-29T11:58:30.674Z,54.90
2023-01-29T12:00:58.649Z,54.90
2023-01-29T12:03:41.447Z,54.60
2023-01-29T12:06:19.829Z,54.50
2023-01-29T12:08:58.362Z,54.60
2023-01-29T12:11:30.161Z,54.60
2023-01-29T12:13:59.970Z,54.80
2023-01-29T12:16:35.591Z,55.40
2023-01-29T12:19:29.305Z,55.00
2023-01-29T12:22:01.146Z,55.00
2023-01-29T12:24:44.215Z,54.90
2023-01-29T12:27:26.863Z,54.90
2023-01-29T12:30:25.854Z,55.00
2023-01-29T12:32:56.736Z,55.20
2023-01-29T12:35:35.689Z,55.10
2023-01-29T12:38:04.215Z,55.30
2023-01-29T12:40:41.845Z,55.40
2023-01-29T13:34:13.385Z,55.30
2023-01-29T13:36:47.539Z,55.70
2023-01-29T13:39:37.531Z,55.90
2023-01-29T13:42:16.809Z,55.60
2023-01-29T13:44:49.269Z,55.60
2023-01-29T13:47:43.295Z,55.50
2023-01-29T13:50:38.767Z,55.20
2023-01-29T13:53:08.233Z,55.30
2023-01-29T13:55:40.039Z,55.40
2023-01-29T13:58:13.929Z,55.40
2023-01-29T14:00:40.551Z,55.30
2023-01-29T14:03:13.355Z,55.20
2023-01-29T14:05:44.270Z,55.30
2023-01-29T14:08:14.039Z,55.40
2023-01-29T14:10:42.826Z,55.80
2023-01-29T14:13:18.597Z,56.10
2023-01-29T14:16:06.141Z,56.20
2023-01-29T14:18:35.075Z,56.10
2023-01-29T14:21:07.075Z,55.90
2023-01-29T14:23:36.180Z,56.20
2023-01-29T14:26:19.627Z,56.20
2023-01-29T14:29:07.552Z,56.20
2023-01-29T14:31:51.978Z,56.00
2023-01-29T14:34:27.443Z,55.80
2023-01-29T14:36:57.205Z,55.50
2023-01-29T14:39:31.351Z,55.30
2023-01-29T14:41:59.337Z,55.50
2023-01-29T14:44:44.683Z,55.50
2023-01-29T14:47:21.503Z,55.70
2023-01-29T14:49:54.192Z,55.90
2023-01-29T14:52:35.877Z,55.60
2023-01-29T14:55:07.086Z,55.70
2023-01-29T14:57:35.809Z,55.70
2023-01-29T15:00:06.257Z,55.50
2023-01-29T15:02:44.646Z,55.70
2023-01-29T15:05:20.067Z,56.10
2023-01-29T15:07:56.993Z,55.90
2023-01-29T15:10:42.061Z,56.00
2023-01-29T15:13:18.469Z,56.10
2023-01-29T15:15:54.204Z,56.30
2023-01-29T15:18:32.737Z,55.90
2023-01-29T15:21:05.935Z,55.80
2023-01-29T15:23:34.247Z,55.70
2023-01-29T15:26:04.259Z,55.80
2023-01-29T15:28:33.136Z,56.10
2023-01-29T15:31:01.097Z,56.30
2023-01-29T15:33:28.437Z,56.20
2023-01-29T15:36:07.619Z,56.00
2023-01-29T15:38:37.693Z,56.50
2023-01-29T15:41:16.321Z,56.60
2023-01-29T15:43:57.522Z,56.50
2023-01-29T15:46:29.009Z,56.70
2023-01-29T15:48:59.491Z,56.50
2023-01-29T15:51:27.929Z,56.90
2023-01-29T15:53:57.976Z,56.60
2023-01-29T15:56:29.248Z,56.50
2023-01-29T15:58:58.949Z,56.70
2023-01-29T16:01:29.421Z,57.00
2023-01-29T16:03:59.452Z,57.40
2023-01-29T16:06:37.858Z,57.60
2023-01-29T16:09:05.996Z,58.00
2023-01-29T16:11:34.527Z,58.20
2023-01-29T16:14:02.727Z,58.50
2023-01-29T16:16:29.560Z,58.70
2023-01-29T16:19:01.263Z,59.00
2023-01-29T16:21:31.066Z,59.10
2023-01-29T16:24:01.902Z,59.00
2023-01-29T16:26:32.950Z,58.80
2023-01-29T16:29:05.440Z,58.90
2023-01-29T16:31:33.068Z,58.70
2023-01-29T16:34:18.137Z,58.50
2023-01-29T16:36:47.472Z,59.00
2023-01-29T16:39:27.085Z,58.80
2023-01-29T16:42:22.825Z,58.70
2023-01-29T16:45:03.014Z,58.80
2023-01-29T16:47:29.746Z,59.00
2023-01-29T16:49:59.433Z,59.40
2023-01-29T16:52:26.115Z,59.30
2023-01-29T16:54:58.448Z,59.50
2023-01-29T16:57:31.595Z,59.60
2023-01-29T17:00:01.610Z,59.70
2023-01-29T17:02:35.878Z,59.90
2023-01-29T17:05:09.993Z,60.10
2023-01-29T17:07:37.908Z,59.80
2023-01-29T17:10:06.551Z,59.60
2023-01-29T17:12:34.242Z,59.70
2023-01-29T17:15:04.574Z,60.10
2023-01-29T17:17:33.703Z,60.00
2023-01-29T17:20:27.879Z,60.00
2023-01-29T17:22:54.788Z,60.30
2023-01-29T17:25:22.074Z,59.70
2023-01-29T17:27:51.760Z,59.70
2023-01-29T17:30:22.239Z,59.80
2023-01-29T17:32:49.122Z,60.00
2023-01-29T17:35:17.401Z,60.50
2023-01-29T17:37:44.510Z,61.10
2023-01-29T17:40:36.263Z,60.70
2023-01-29T17:43:02.995Z,60.40
2023-01-29T17:45:29.717Z,65.40
2023-01-29T17:47:56.479Z,63.70
2023-01-29T17:50:27.270Z,60.60
2023-01-29T17:52:54.082Z,59.10
2023-01-29T17:55:21.145Z,58.80
2023-01-29T17:57:47.802Z,58.10
2023-01-29T18:00:20.486Z,57.80
2023-01-29T18:02:47.417Z,57.60
2023-01-29T18:05:15.791Z,56.90
2023-01-29T18:07:45.865Z,57.30
2023-01-29T18:10:20.645Z,59.00
2023-01-29T18:12:47.636Z,59.40
2023-01-29T18:15:15.121Z,58.50
2023-01-29T18:17:42.304Z,58.00
2023-01-29T18:20:17.749Z,58.00
2023-01-29T18:22:44.988Z,58.30
2023-01-29T18:25:12.274Z,58.40
2023-01-29T18:27:39.041Z,58.50
2023-01-29T18:30:06.558Z,58.60
2023-01-29T18:32:33.233Z,58.80
2023-01-29T18:35:00.025Z,59.00
2023-01-29T18:37:26.874Z,59.20
2023-01-29T18:39:53.882Z,59.40
2023-01-29T18:42:20.665Z,59.60
2023-01-29T18:44:47.440Z,59.90
2023-01-29T18:47:14.289Z,60.30
2023-01-29T18:49:40.978Z,60.30
2023-01-29T18:52:08.329Z,60.10
2023-01-29T18:54:34.991Z,60.30
2023-01-29T18:57:08.783Z,60.60
2023-01-29T18:59:41.018Z,60.80
2023-01-29T19:02:08.058Z,60.90
2023-01-29T19:04:34.899Z,61.30
2023-01-29T19:07:01.681Z,61.10
2023-01-29T19:09:28.459Z,61.10
2023-01-29T19:11:55.251Z,61.20
2023-01-29T19:14:21.959Z,61.40
2023-01-29T19:16:49.623Z,61.30
2023-01-29T19:19:16.888Z,61.50
2023-01-29T19:21:43.638Z,61.60
2023-01-29T19:24:11.716Z,62.30
2023-01-29T19:26:38.473Z,61.80
2023-01-29T19:29:05.170Z,61.80
2023-01-29T19:31:31.970Z,61.90
2023-01-29T19:33:58.829Z,62.20
2023-01-29T19:36:26.076Z,61.90
2023-01-29T19:38:52.712Z,61.80
2023-01-29T19:41:19.519Z,61.80
2023-01-29T19:43:48.150Z,61.60
2023-01-29T19:46:15.808Z,61.50
2023-01-29T19:48:42.483Z,61.60
2023-01-29T19:51:13.490Z,61.90
2023-01-29T19:53:45.332Z,62.00
2023-01-29T19:56:15.394Z,62.50
2023-01-29T19:58:42.747Z,62.20
2023-01-29T20:01:20.955Z,62.20
2023-01-29T20:03:49.195Z,62.30
2023-01-29T20:06:19.348Z,62.30
2023-01-29T20:08:46.661Z,62.30
2023-01-29T20:11:18.385Z,62.00
2023-01-29T20:13:47.484Z,61.80
2023-01-29T20:16:14.310Z,61.70
2023-01-29T20:18:41.028Z,61.60
2023-01-29T20:21:10.712Z,62.00
2023-01-29T20:23:39.736Z,61.90
2023-01-29T20:26:08.050Z,62.00
2023-01-29T20:28:35.039Z,62.10
2023-01-29T20:31:02.027Z,62.10
2023-01-29T20:33:29.064Z,62.20
2023-01-29T20:36:00.239Z,62.20
2023-01-29T20:38:30.526Z,62.50
2023-01-29T20:41:17.742Z,62.60
2023-01-29T20:43:45.665Z,62.80
2023-01-29T20:46:13.198Z,62.80
2023-01-29T20:48:42.079Z,63.00
2023-01-29T20:51:13.643Z,63.00
2023-01-29T20:53:41.136Z,63.10
2023-01-29T20:56:09.109Z,63.10
2023-01-29T20:58:38.488Z,63.20
2023-01-29T21:01:15.431Z,63.40
2023-01-29T21:03:42.649Z,63.80
2023-01-29T21:06:10.874Z,64.00
2023-01-29T21:08:37.889Z,64.30
2023-01-29T21:11:06.561Z,64.50
2023-01-29T21:13:33.718Z,64.60
2023-01-29T21:16:00.578Z,64.90
2023-01-29T21:18:27.238Z,65.00
2023-01-29T21:20:54.322Z,65.10
2023-01-29T21:23:24.003Z,65.20
2023-01-29T21:25:50.806Z,65.20
2023-01-29T21:28:17.574Z,65.20
2023-01-29T21:30:44.468Z,65.20
2023-01-29T21:33:11.345Z,65.30
2023-01-29T21:35:38.455Z,65.40
2023-01-29T21:38:05.155Z,65.60
2023-01-29T21:40:31.950Z,65.80
2023-01-29T21:43:15.312Z,65.70
2023-01-29T21:45:42.714Z,65.70
2023-01-29T21:48:11.197Z,65.60
2023-01-29T21:50:38.353Z,65.80
2023-01-29T21:53:05.159Z,65.90
2023-01-29T21:55:32.744Z,65.90
2023-01-29T21:58:00.313Z,65.90
2023-01-29T22:00:28.337Z,66.00
2023-01-29T22:02:55.159Z,65.90
2023-01-29T22:05:21.942Z,66.10
2023-01-29T22:07:49.536Z,66.30
2023-01-29T22:10:17.717Z,66.50
2023-01-29T22:12:45.020Z,66.50
2023-01-29T22:15:13.576Z,66.50
2023-01-29T22:17:41.508Z,66.40
2023-01-29T22:20:13.701Z,66.50
2023-01-29T22:22:40.661Z,66.60
2023-01-29T22:25:07.685Z,66.70
2023-01-29T22:27:34.803Z,66.80
2023-01-29T22:30:01.563Z,66.90
2023-01-29T22:32:28.515Z,66.80
2023-01-29T22:34:55.327Z,66.70
2023-01-29T22:37:22.042Z,66.60
2023-01-29T22:39:48.840Z,66.70
2023-01-29T22:42:15.482Z,66.90
2023-01-29T22:44:42.696Z,67.10
2023-01-29T22:47:09.434Z,67.20
2023-01-29T22:49:36.158Z,67.30
2023-01-29T22:52:11.865Z,67.40
2023-01-29T22:54:42.937Z,67.50
2023-01-29T22:57:14.952Z,67.70
2023-01-29T22:59:41.734Z,67.70
2023-01-29T23:02:08.846Z,67.80
2023-01-29T23:04:35.813Z,68.10
2023-01-29T23:07:02.728Z,68.20
2023-01-29T23:09:29.492Z,68.10
2023-01-29T23:11:56.223Z,68.00
2023-01-29T23:14:22.951Z,68.00
2023-01-29T23:16:49.708Z,68.00
2023-01-29T23:19:16.466Z,68.00
2023-01-29T23:21:43.384Z,68.00
2023-01-29T23:24:10.577Z,68.10
2023-01-29T23:26:56.276Z,68.30
2023-01-29T23:29:23.328Z,68.30
2023-01-29T23:31:50.157Z,68.30
2023-01-29T23:34:17.089Z,68.40
2023-01-29T23:36:44.126Z,68.50
2023-01-29T23:39:11.227Z,68.70
2023-01-29T23:41:37.984Z,68.80
2023-01-29T23:44:05.062Z,69.00
2023-01-29T23:46:37.270Z,69.00
2023-01-29T23:49:04.240Z,69.20
2023-01-29T23:51:31.074Z,69.30
2023-01-29T23:53:57.946Z,69.50
2023-01-29T23:56:24.643Z,69.60
2023-01-29T23:58:55.907Z,69.80
